Cromwell, Oklahoma
Current Conditions -  °F | °C
As of 7:55 PM on Saturday 25 Oct 2014 (Local Time) from KCQB Reporting Station
Clear Clear  
Wind Chill: 77°   Ceiling: Unl
Heat Index: 79°   Visibility: 10mi
Dew Point: 66°   Wind: 5mph
Humidity: 69%   Direction: 170°S
Pressure: 30.01"   Gusts: NA
Location:  35.34°N, 96.46°W
Report Text: KCQB 260055Z AUTO 17004KT 10SM CLR 25/19 A3001 RMK AO2
Loading
Personal Weather Stations






























Interactive Weather Map
Tropical Storm Tracking
New forecast layout! Learn more

10-Day Weather Forecast

Advertisements
Track Severe Weather on mobile